sensor_id;sensor_type;location;lat;lon;timestamp;P1;durP1;ratioP1;P2;durP2;ratioP2
50086;SDS011;35967;50.718;7.050;2023-08-12T00:02:22;19.15;;;11.32;;
50086;SDS011;35967;50.718;7.050;2023-08-12T00:12:25;19.23;;;11.82;;
50086;SDS011;35967;50.718;7.050;2023-08-12T00:22:30;19.90;;;12.52;;
50086;SDS011;35967;50.718;7.050;2023-08-12T00:32:33;27.70;;;15.30;;
50086;SDS011;35967;50.718;7.050;2023-08-12T00:42:37;19.33;;;14.57;;
50086;SDS011;35967;50.718;7.050;2023-08-12T00:52:40;18.85;;;12.90;;
50086;SDS011;35967;50.718;7.050;2023-08-12T01:02:45;17.13;;;12.45;;
50086;SDS011;35967;50.718;7.050;2023-08-12T01:12:52;22.20;;;14.43;;
50086;SDS011;35967;50.718;7.050;2023-08-12T01:23:11;22.83;;;16.33;;
50086;SDS011;35967;50.718;7.050;2023-08-12T01:33:15;20.55;;;12.68;;
50086;SDS011;35967;50.718;7.050;2023-08-12T01:43:23;20.42;;;13.57;;
50086;SDS011;35967;50.718;7.050;2023-08-12T01:53:27;20.60;;;15.20;;
50086;SDS011;35967;50.718;7.050;2023-08-12T02:03:32;21.10;;;14.18;;
50086;SDS011;35967;50.718;7.050;2023-08-12T02:13:36;17.97;;;12.50;;
50086;SDS011;35967;50.718;7.050;2023-08-12T02:23:41;16.38;;;12.13;;
50086;SDS011;35967;50.718;7.050;2023-08-12T02:33:45;17.30;;;10.80;;
50086;SDS011;35967;50.718;7.050;2023-08-12T02:43:50;16.13;;;11.98;;
50086;SDS011;35967;50.718;7.050;2023-08-12T02:53:53;22.85;;;14.10;;
50086;SDS011;35967;50.718;7.050;2023-08-12T03:03:57;18.80;;;12.32;;
50086;SDS011;35967;50.718;7.050;2023-08-12T03:14:01;14.13;;;11.85;;
50086;SDS011;35967;50.718;7.050;2023-08-12T03:24:06;17.23;;;9.90;;
50086;SDS011;35967;50.718;7.050;2023-08-12T03:34:09;10.57;;;6.75;;
50086;SDS011;35967;50.718;7.050;2023-08-12T03:44:17;12.23;;;8.02;;
50086;SDS011;35967;50.718;7.050;2023-08-12T03:54:21;10.63;;;8.48;;
50086;SDS011;35967;50.718;7.050;2023-08-12T04:04:25;10.23;;;8.32;;
50086;SDS011;35967;50.718;7.050;2023-08-12T04:14:28;14.82;;;7.72;;
50086;SDS011;35967;50.718;7.050;2023-08-12T04:24:33;11.80;;;7.75;;
50086;SDS011;35967;50.718;7.050;2023-08-12T04:34:37;11.98;;;8.23;;
50086;SDS011;35967;50.718;7.050;2023-08-12T04:44:42;11.93;;;8.13;;
50086;SDS011;35967;50.718;7.050;2023-08-12T04:54:45;10.43;;;8.40;;
50086;SDS011;35967;50.718;7.050;2023-08-12T05:04:51;9.90;;;7.72;;
50086;SDS011;35967;50.718;7.050;2023-08-12T05:14:56;10.90;;;8.53;;
50086;SDS011;35967;50.718;7.050;2023-08-12T05:25:00;10.40;;;7.68;;
50086;SDS011;35967;50.718;7.050;2023-08-12T05:35:04;11.63;;;6.93;;
50086;SDS011;35967;50.718;7.050;2023-08-12T05:45:09;8.68;;;3.47;;
50086;SDS011;35967;50.718;7.050;2023-08-12T05:55:12;4.00;;;2.00;;
50086;SDS011;35967;50.718;7.050;2023-08-12T06:05:16;9.23;;;2.90;;
50086;SDS011;35967;50.718;7.050;2023-08-12T06:15:19;2.97;;;1.50;;
50086;SDS011;35967;50.718;7.050;2023-08-12T06:25:24;7.00;;;1.50;;
50086;SDS011;35967;50.718;7.050;2023-08-12T06:35:27;5.22;;;1.88;;
50086;SDS011;35967;50.718;7.050;2023-08-12T06:45:31;6.18;;;1.65;;
50086;SDS011;35967;50.718;7.050;2023-08-12T06:55:35;6.72;;;1.80;;
50086;SDS011;35967;50.718;7.050;2023-08-12T07:05:39;5.88;;;1.50;;
50086;SDS011;35967;50.718;7.050;2023-08-12T07:15:42;3.95;;;1.50;;
50086;SDS011;35967;50.718;7.050;2023-08-12T07:25:47;4.80;;;1.30;;
50086;SDS011;35967;50.718;7.050;2023-08-12T07:35:50;4.10;;;1.33;;
50086;SDS011;35967;50.718;7.050;2023-08-12T07:45:54;2.83;;;1.30;;
50086;SDS011;35967;50.718;7.050;2023-08-12T07:56:10;3.70;;;0.95;;
50086;SDS011;35967;50.718;7.050;2023-08-12T08:06:14;9.27;;;1.60;;
50086;SDS011;35967;50.718;7.050;2023-08-12T08:16:17;3.97;;;1.40;;
50086;SDS011;35967;50.718;7.050;2023-08-12T08:26:22;2.92;;;1.10;;
50086;SDS011;35967;50.718;7.050;2023-08-12T08:36:25;5.03;;;1.20;;
50086;SDS011;35967;50.718;7.050;2023-08-12T08:46:29;2.60;;;1.10;;
50086;SDS011;35967;50.718;7.050;2023-08-12T08:56:32;2.47;;;0.85;;
50086;SDS011;35967;50.718;7.050;2023-08-12T09:06:46;2.25;;;1.00;;
50086;SDS011;35967;50.718;7.050;2023-08-12T09:16:50;2.55;;;0.90;;
50086;SDS011;35967;50.718;7.050;2023-08-12T09:26:54;5.28;;;1.00;;
50086;SDS011;35967;50.718;7.050;2023-08-12T09:36:58;2.95;;;1.05;;
50086;SDS011;35967;50.718;7.050;2023-08-12T09:47:02;4.13;;;0.80;;
50086;SDS011;35967;50.718;7.050;2023-08-12T09:57:05;2.53;;;0.88;;
50086;SDS011;35967;50.718;7.050;2023-08-12T10:07:14;5.10;;;1.00;;
50086;SDS011;35967;50.718;7.050;2023-08-12T10:17:18;4.15;;;0.90;;
50086;SDS011;35967;50.718;7.050;2023-08-12T10:27:42;2.95;;;0.90;;
50086;SDS011;35967;50.718;7.050;2023-08-12T10:37:48;3.20;;;1.07;;
50086;SDS011;35967;50.718;7.050;2023-08-12T10:48:09;1.87;;;0.90;;
50086;SDS011;35967;50.718;7.050;2023-08-12T10:58:28;1.50;;;0.65;;
50086;SDS011;35967;50.718;7.050;2023-08-12T11:08:33;1.58;;;0.75;;
50086;SDS011;35967;50.718;7.050;2023-08-12T11:18:37;2.55;;;0.60;;
50086;SDS011;35967;50.718;7.050;2023-08-12T11:28:41;1.15;;;0.50;;
50086;SDS011;35967;50.718;7.050;2023-08-12T11:38:44;1.80;;;0.70;;
50086;SDS011;35967;50.718;7.050;2023-08-12T11:48:49;3.30;;;0.60;;
50086;SDS011;35967;50.718;7.050;2023-08-12T11:58:52;2.17;;;0.50;;
50086;SDS011;35967;50.718;7.050;2023-08-12T12:08:57;2.60;;;0.40;;
50086;SDS011;35967;50.718;7.050;2023-08-12T12:19:03;0.63;;;0.30;;
50086;SDS011;35967;50.718;7.050;2023-08-12T12:29:09;1.48;;;0.30;;
50086;SDS011;35967;50.718;7.050;2023-08-12T12:39:14;1.88;;;0.60;;
50086;SDS011;35967;50.718;7.050;2023-08-12T12:49:18;2.53;;;0.30;;
50086;SDS011;35967;50.718;7.050;2023-08-12T12:59:22;1.10;;;0.22;;
50086;SDS011;35967;50.718;7.050;2023-08-12T13:09:27;3.53;;;0.40;;
50086;SDS011;35967;50.718;7.050;2023-08-12T13:19:30;1.13;;;0.30;;
50086;SDS011;35967;50.718;7.050;2023-08-12T13:29:34;3.75;;;0.22;;
50086;SDS011;35967;50.718;7.050;2023-08-12T13:39:37;0.60;;;0.20;;
50086;SDS011;35967;50.718;7.050;2023-08-12T13:49:42;0.82;;;0.25;;
50086;SDS011;35967;50.718;7.050;2023-08-12T13:59:46;0.30;;;0.13;;
50086;SDS011;35967;50.718;7.050;2023-08-12T14:09:50;1.75;;;0.20;;
50086;SDS011;35967;50.718;7.050;2023-08-12T14:19:53;0.47;;;0.10;;
50086;SDS011;35967;50.718;7.050;2023-08-12T14:29:58;1.38;;;0.40;;
50086;SDS011;35967;50.718;7.050;2023-08-12T14:40:01;0.85;;;0.20;;
50086;SDS011;35967;50.718;7.050;2023-08-12T14:50:06;2.35;;;0.30;;
50086;SDS011;35967;50.718;7.050;2023-08-12T15:00:10;2.58;;;0.50;;
50086;SDS011;35967;50.718;7.050;2023-08-12T15:20:21;1.02;;;0.22;;
50086;SDS011;35967;50.718;7.050;2023-08-12T15:30:25;1.25;;;0.20;;
50086;SDS011;35967;50.718;7.050;2023-08-12T15:40:29;2.35;;;0.40;;
50086;SDS011;35967;50.718;7.050;2023-08-12T15:50:33;0.65;;;0.20;;
50086;SDS011;35967;50.718;7.050;2023-08-12T16:00:36;0.73;;;0.30;;
50086;SDS011;35967;50.718;7.050;2023-08-12T16:10:46;2.45;;;0.60;;
50086;SDS011;35967;50.718;7.050;2023-08-12T16:20:49;1.10;;;0.35;;
50086;SDS011;35967;50.718;7.050;2023-08-12T16:30:53;2.88;;;0.60;;
50086;SDS011;35967;50.718;7.050;2023-08-12T16:40:56;2.85;;;0.40;;
50086;SDS011;35967;50.718;7.050;2023-08-12T16:51:01;2.97;;;0.40;;
50086;SDS011;35967;50.718;7.050;2023-08-12T17:01:04;2.10;;;0.50;;
50086;SDS011;35967;50.718;7.050;2023-08-12T17:11:08;1.30;;;0.52;;
50086;SDS011;35967;50.718;7.050;2023-08-12T17:21:12;4.45;;;0.60;;
50086;SDS011;35967;50.718;7.050;2023-08-12T17:31:16;3.47;;;0.57;;
50086;SDS011;35967;50.718;7.050;2023-08-12T17:41:20;2.92;;;0.50;;
50086;SDS011;35967;50.718;7.050;2023-08-12T17:51:24;1.02;;;0.47;;
50086;SDS011;35967;50.718;7.050;2023-08-12T18:01:27;9.88;;;1.00;;
50086;SDS011;35967;50.718;7.050;2023-08-12T18:11:31;2.65;;;0.57;;
50086;SDS011;35967;50.718;7.050;2023-08-12T18:21:35;4.75;;;0.60;;
50086;SDS011;35967;50.718;7.050;2023-08-12T18:31:39;2.42;;;0.70;;
50086;SDS011;35967;50.718;7.050;2023-08-12T18:41:42;3.03;;;0.88;;
50086;SDS011;35967;50.718;7.050;2023-08-12T18:51:47;3.05;;;0.80;;
50086;SDS011;35967;50.718;7.050;2023-08-12T19:01:50;4.43;;;0.95;;
50086;SDS011;35967;50.718;7.050;2023-08-12T19:11:55;3.22;;;1.02;;
50086;SDS011;35967;50.718;7.050;2023-08-12T19:21:58;2.85;;;0.70;;
50086;SDS011;35967;50.718;7.050;2023-08-12T19:32:03;3.03;;;0.68;;
50086;SDS011;35967;50.718;7.050;2023-08-12T19:42:06;8.95;;;1.05;;
50086;SDS011;35967;50.718;7.050;2023-08-12T19:52:11;7.95;;;1.35;;
50086;SDS011;35967;50.718;7.050;2023-08-12T20:02:17;6.35;;;1.83;;
50086;SDS011;35967;50.718;7.050;2023-08-12T20:12:40;4.55;;;1.65;;
50086;SDS011;35967;50.718;7.050;2023-08-12T20:22:43;7.20;;;1.10;;
50086;SDS011;35967;50.718;7.050;2023-08-12T20:33:07;10.85;;;1.77;;
50086;SDS011;35967;50.718;7.050;2023-08-12T20:43:11;12.00;;;2.10;;
50086;SDS011;35967;50.718;7.050;2023-08-12T20:53:15;7.95;;;1.55;;
50086;SDS011;35967;50.718;7.050;2023-08-12T21:03:18;4.65;;;1.20;;
50086;SDS011;35967;50.718;7.050;2023-08-12T21:13:24;6.82;;;2.00;;
50086;SDS011;35967;50.718;7.050;2023-08-12T21:23:27;8.23;;;2.28;;
50086;SDS011;35967;50.718;7.050;2023-08-12T21:33:31;6.97;;;1.70;;
50086;SDS011;35967;50.718;7.050;2023-08-12T21:43:34;8.85;;;2.05;;
50086;SDS011;35967;50.718;7.050;2023-08-12T21:53:39;8.70;;;1.70;;
50086;SDS011;35967;50.718;7.050;2023-08-12T22:13:48;10.95;;;2.90;;
50086;SDS011;35967;50.718;7.050;2023-08-12T22:23:51;8.57;;;2.00;;
50086;SDS011;35967;50.718;7.050;2023-08-12T22:33:56;9.02;;;2.40;;
50086;SDS011;35967;50.718;7.050;2023-08-12T22:44:00;10.30;;;1.30;;
50086;SDS011;35967;50.718;7.050;2023-08-12T22:54:05;11.13;;;1.67;;
50086;SDS011;35967;50.718;7.050;2023-08-12T23:04:08;10.23;;;1.40;;
50086;SDS011;35967;50.718;7.050;2023-08-12T23:14:12;5.57;;;1.20;;
50086;SDS011;35967;50.718;7.050;2023-08-12T23:24:16;5.78;;;2.10;;
50086;SDS011;35967;50.718;7.050;2023-08-12T23:34:20;11.32;;;1.45;;
50086;SDS011;35967;50.718;7.050;2023-08-12T23:44:23;5.23;;;1.10;;
50086;SDS011;35967;50.718;7.050;2023-08-12T23:54:45;11.93;;;4.72;;
